createdAt,value
2019-05-28T00:00:01.824Z,14.30
2019-05-28T00:02:22.680Z,14.30
2019-05-28T00:04:51.151Z,14.40
2019-05-28T00:07:19.734Z,14.40
2019-05-28T00:09:48.286Z,14.30
2019-05-28T00:12:16.747Z,14.20
2019-05-28T00:14:45.226Z,14.10
2019-05-28T00:17:13.695Z,14.00
2019-05-28T00:19:42.172Z,14.10
2019-05-28T00:22:10.637Z,14.00
2019-05-28T00:24:39.119Z,14.00
2019-05-28T00:27:07.578Z,14.10
2019-05-28T00:29:36.089Z,14.10
2019-05-28T00:32:04.554Z,14.10
2019-05-28T00:34:33.111Z,13.90
2019-05-28T00:37:01.573Z,14.00
2019-05-28T00:39:30.111Z,14.00
2019-05-28T00:41:58.579Z,14.00
2019-05-28T00:44:27.055Z,14.00
2019-05-28T00:46:55.533Z,13.90
2019-05-28T00:49:24.193Z,14.00
2019-05-28T00:51:52.808Z,13.90
2019-05-28T00:54:21.312Z,13.80
2019-05-28T00:56:51.146Z,13.70
2019-05-28T00:59:20.842Z,13.70
2019-05-28T01:01:49.378Z,13.40
2019-05-28T01:04:17.854Z,13.20
2019-05-28T01:06:46.358Z,13.40
2019-05-28T01:09:14.916Z,13.40
2019-05-28T01:11:43.387Z,13.40
2019-05-28T01:14:11.900Z,13.60
2019-05-28T01:16:40.429Z,13.70
2019-05-28T01:19:08.975Z,13.70
2019-05-28T01:21:37.432Z,13.70
2019-05-28T01:24:05.951Z,13.60
2019-05-28T01:26:34.479Z,13.70
2019-05-28T01:29:03.019Z,13.70
2019-05-28T01:31:31.479Z,13.80
2019-05-28T01:33:59.963Z,13.70
2019-05-28T01:36:28.434Z,13.70
2019-05-28T01:38:56.956Z,13.60
2019-05-28T01:41:25.479Z,13.70
2019-05-28T01:43:54.034Z,13.80
2019-05-28T01:46:22.828Z,13.80
2019-05-28T01:48:51.316Z,13.80
2019-05-28T01:51:19.773Z,13.90
2019-05-28T01:53:48.252Z,13.90
2019-05-28T01:56:16.786Z,13.90
2019-05-28T01:58:45.249Z,13.80
2019-05-28T02:01:13.748Z,13.80
2019-05-28T02:03:42.216Z,13.70
2019-05-28T02:06:10.709Z,13.70
2019-05-28T02:08:39.248Z,13.70
2019-05-28T02:11:07.812Z,13.60
2019-05-28T02:13:36.279Z,13.70
2019-05-28T02:16:04.855Z,13.70
2019-05-28T02:18:33.380Z,13.60
2019-05-28T02:21:01.868Z,13.60
2019-05-28T02:23:30.413Z,13.60
2019-05-28T02:25:58.891Z,13.50
2019-05-28T02:28:27.370Z,13.50
2019-05-28T02:30:55.870Z,13.40
2019-05-28T02:33:24.420Z,13.40
2019-05-28T02:35:52.974Z,13.50
2019-05-28T02:38:21.450Z,13.50
2019-05-28T02:40:50.007Z,13.50
2019-05-28T02:43:18.480Z,13.40
2019-05-28T02:45:47.036Z,13.30
2019-05-28T02:48:15.508Z,13.10
2019-05-28T02:50:49.690Z,13.10
2019-05-28T02:53:18.234Z,13.00
2019-05-28T02:55:47.214Z,13.10
2019-05-28T02:58:17.407Z,13.10
2019-05-28T03:00:46.532Z,13.10
2019-05-28T03:03:16.787Z,12.90
2019-05-28T03:05:46.821Z,13.00
2019-05-28T03:08:17.608Z,13.10
2019-05-28T03:11:02.433Z,13.30
2019-05-28T03:13:16.321Z,13.30
2019-05-28T03:15:47.723Z,13.30
2019-05-28T03:18:18.984Z,13.40
2019-05-28T03:20:48.184Z,13.30
2019-05-28T03:23:17.667Z,13.30
2019-05-28T03:25:46.231Z,13.30
2019-05-28T03:28:14.902Z,13.30
2019-05-28T03:30:43.465Z,13.30
2019-05-28T03:33:12.010Z,13.40
2019-05-28T03:35:42.591Z,13.40
2019-05-28T03:38:12.521Z,13.40
2019-05-28T03:40:43.262Z,13.20
2019-05-28T03:43:11.821Z,13.30
2019-05-28T03:45:40.560Z,13.30
2019-05-28T03:48:09.564Z,13.20
2019-05-28T03:50:38.194Z,13.20
2019-05-28T03:53:07.075Z,13.10
2019-05-28T03:55:35.563Z,13.20
2019-05-28T03:58:04.321Z,13.20
2019-05-28T04:00:32.898Z,13.30
2019-05-28T04:03:01.448Z,13.30
2019-05-28T04:05:30.562Z,13.10
2019-05-28T04:07:59.026Z,13.10
2019-05-28T04:10:27.515Z,13.10
2019-05-28T04:12:56.059Z,13.10
2019-05-28T04:15:24.609Z,13.00
2019-05-28T04:17:53.169Z,13.10
2019-05-28T04:20:21.792Z,13.10
2019-05-28T04:22:50.355Z,13.10
2019-05-28T04:25:18.902Z,13.00
2019-05-28T04:27:47.455Z,13.10
2019-05-28T04:30:16.151Z,13.10
2019-05-28T04:32:44.718Z,13.20
2019-05-28T04:35:13.412Z,13.20
2019-05-28T04:37:41.956Z,13.20
2019-05-28T04:40:10.578Z,13.30
2019-05-28T04:42:39.152Z,13.30
2019-05-28T04:45:08.327Z,13.30
2019-05-28T04:47:36.834Z,13.30
2019-05-28T04:50:07.181Z,13.30
2019-05-28T04:52:36.240Z,13.40
2019-05-28T04:55:05.819Z,13.50
2019-05-28T04:57:34.449Z,13.40
2019-05-28T05:00:03.987Z,13.50
2019-05-28T05:02:32.479Z,13.60
2019-05-28T05:05:01.024Z,13.60
2019-05-28T05:07:29.503Z,13.40
2019-05-28T05:09:57.967Z,13.30
2019-05-28T05:12:26.465Z,13.40
2019-05-28T05:14:54.988Z,13.40
2019-05-28T05:17:23.603Z,13.40
2019-05-28T05:19:52.079Z,13.50
2019-05-28T05:22:20.663Z,13.60
2019-05-28T05:24:49.182Z,13.60
2019-05-28T05:27:17.742Z,13.70
2019-05-28T05:29:46.223Z,13.70
2019-05-28T05:32:14.775Z,13.80
2019-05-28T05:34:43.328Z,13.90
2019-05-28T05:37:11.845Z,13.90
2019-05-28T05:39:40.311Z,14.00
2019-05-28T05:42:08.946Z,14.10
2019-05-28T05:44:37.423Z,14.10
2019-05-28T05:47:05.979Z,14.20
2019-05-28T05:49:34.543Z,14.20
2019-05-28T05:52:03.110Z,14.40
2019-05-28T05:54:31.579Z,14.40
2019-05-28T05:57:00.161Z,14.60
2019-05-28T05:59:28.781Z,14.60
2019-05-28T06:01:57.328Z,14.70
2019-05-28T06:04:25.801Z,14.80
2019-05-28T06:06:54.369Z,14.90
2019-05-28T06:09:22.926Z,14.90
2019-05-28T06:11:51.519Z,14.90
2019-05-28T06:14:20.064Z,14.80
2019-05-28T06:16:48.617Z,14.80
2019-05-28T06:19:17.137Z,14.70
2019-05-28T06:21:45.654Z,14.70
2019-05-28T06:24:14.284Z,14.70
2019-05-28T06:26:42.837Z,14.80
2019-05-28T06:29:11.347Z,14.80
2019-05-28T06:31:39.882Z,14.70
2019-05-28T06:34:08.359Z,14.80
2019-05-28T06:36:36.845Z,14.80
2019-05-28T06:39:07.536Z,14.90
2019-05-28T06:41:36.218Z,14.90
2019-05-28T06:44:04.951Z,14.90
2019-05-28T06:46:33.429Z,14.90
2019-05-28T06:49:01.999Z,14.90
2019-05-28T06:51:30.550Z,15.00
2019-05-28T06:53:59.166Z,15.00
2019-05-28T06:56:27.671Z,15.10
2019-05-28T06:58:56.165Z,15.10
2019-05-28T07:01:28.305Z,15.00
2019-05-28T07:03:54.938Z,15.10
2019-05-28T07:06:23.475Z,15.10
2019-05-28T07:08:51.968Z,15.10
2019-05-28T07:11:20.435Z,15.30
2019-05-28T07:13:49.042Z,15.20
2019-05-28T07:16:17.559Z,15.20
2019-05-28T07:18:46.111Z,15.10
2019-05-28T07:21:14.611Z,15.10
2019-05-28T07:23:43.183Z,15.10
2019-05-28T07:26:11.667Z,15.10
2019-05-28T07:28:40.202Z,15.10
2019-05-28T07:31:08.681Z,15.20
2019-05-28T07:33:37.170Z,15.10
2019-05-28T07:36:05.659Z,15.20
2019-05-28T07:38:34.226Z,15.30
2019-05-28T07:41:02.735Z,15.20
2019-05-28T07:43:31.290Z,15.10
2019-05-28T07:45:59.835Z,15.30
2019-05-28T07:48:28.451Z,15.50
2019-05-28T07:50:56.945Z,15.50
2019-05-28T07:53:38.793Z,15.70
2019-05-28T07:55:55.695Z,15.70
2019-05-28T07:58:24.195Z,15.70
2019-05-28T08:00:52.669Z,15.60
2019-05-28T08:03:21.232Z,15.70
2019-05-28T08:05:49.702Z,15.70
2019-05-28T08:08:20.381Z,15.70
2019-05-28T08:10:49.072Z,15.70
2019-05-28T08:13:17.658Z,15.50
2019-05-28T08:15:46.198Z,15.60
2019-05-28T08:18:14.754Z,15.80
2019-05-28T08:20:43.305Z,15.80
2019-05-28T08:23:11.802Z,15.80
2019-05-28T08:25:47.208Z,15.90
2019-05-28T08:28:19.872Z,15.90
2019-05-28T08:30:41.029Z,15.90
2019-05-28T08:33:09.830Z,15.90
2019-05-28T08:35:38.468Z,15.90
2019-05-28T08:38:07.089Z,16.00
2019-05-28T08:40:35.639Z,16.00
2019-05-28T08:43:04.859Z,16.20
2019-05-28T08:45:33.414Z,16.20
2019-05-28T08:48:01.928Z,16.10
2019-05-28T08:50:34.570Z,16.20
2019-05-28T08:53:00.681Z,16.30
2019-05-28T08:55:29.280Z,16.20
2019-05-28T08:58:01.370Z,16.30
2019-05-28T09:00:40.242Z,16.20
2019-05-28T09:03:09.195Z,16.00
2019-05-28T09:05:37.847Z,15.70
2019-05-28T09:08:06.591Z,15.50
2019-05-28T09:10:35.522Z,15.40
2019-05-28T09:13:04.703Z,15.30
2019-05-28T09:15:33.331Z,15.10
2019-05-28T09:18:01.935Z,15.10
2019-05-28T09:20:30.583Z,14.90
2019-05-28T09:22:59.215Z,14.80
2019-05-28T09:25:27.765Z,14.70
2019-05-28T09:27:56.325Z,14.70
2019-05-28T09:30:24.936Z,14.70
2019-05-28T09:32:53.518Z,14.80
2019-05-28T09:35:22.073Z,14.90
2019-05-28T09:37:50.598Z,14.90
2019-05-28T09:40:19.299Z,15.00
2019-05-28T09:42:47.836Z,14.90
2019-05-28T09:45:22.923Z,14.70
2019-05-28T09:47:46.872Z,14.60
2019-05-28T09:50:29.963Z,14.60
2019-05-28T09:52:54.643Z,14.80
2019-05-28T09:55:18.364Z,14.90
2019-05-28T09:57:48.146Z,15.10
2019-05-28T10:00:21.243Z,15.20
2019-05-28T10:02:50.721Z,15.30
2019-05-28T10:05:19.974Z,15.10
2019-05-28T10:07:49.151Z,15.30
2019-05-28T10:10:17.835Z,15.40
2019-05-28T10:12:46.785Z,15.70
2019-05-28T10:15:16.985Z,15.70
2019-05-28T10:17:45.522Z,15.80
2019-05-28T10:20:16.022Z,15.60
2019-05-28T10:22:44.649Z,15.20
2019-05-28T10:25:14.515Z,15.60
2019-05-28T10:27:59.223Z,15.50
2019-05-28T10:30:14.042Z,15.40
2019-05-28T10:32:42.570Z,15.00
2019-05-28T10:35:13.167Z,15.30
2019-05-28T10:37:41.745Z,15.10
2019-05-28T10:40:10.734Z,15.50
2019-05-28T10:42:39.290Z,15.70
2019-05-28T10:45:10.281Z,15.80
2019-05-28T10:47:38.889Z,16.30
2019-05-28T10:50:07.843Z,16.60
2019-05-28T10:52:36.426Z,16.50
2019-05-28T10:55:06.717Z,16.60
2019-05-28T10:57:35.261Z,16.70
2019-05-28T11:00:08.616Z,16.70
2019-05-28T11:02:37.233Z,16.40
2019-05-28T11:05:07.816Z,16.60
2019-05-28T11:07:36.428Z,16.80
2019-05-28T11:10:22.619Z,16.90
2019-05-28T11:12:37.708Z,17.00
2019-05-28T11:15:08.979Z,17.10
2019-05-28T11:17:37.607Z,17.20
2019-05-28T11:20:08.163Z,17.10
2019-05-28T11:22:36.698Z,17.20
2019-05-28T11:25:07.968Z,17.30
2019-05-28T11:27:36.509Z,17.40
2019-05-28T11:30:13.402Z,17.30
2019-05-28T11:32:41.952Z,17.10
2019-05-28T11:35:11.644Z,17.00
2019-05-28T11:37:40.163Z,16.80
2019-05-28T11:40:12.099Z,16.90
2019-05-28T11:42:40.804Z,17.20
2019-05-28T11:45:11.482Z,17.20
2019-05-28T11:47:40.967Z,17.20
2019-05-28T11:50:11.166Z,17.10
2019-05-28T11:52:39.855Z,17.10
2019-05-28T11:55:14.112Z,17.10
2019-05-28T11:57:43.451Z,17.10
2019-05-28T12:00:14.546Z,17.10
2019-05-28T12:02:43.089Z,16.90
2019-05-28T12:05:14.065Z,16.80
2019-05-28T12:07:42.652Z,16.80
2019-05-28T12:10:12.033Z,16.70
2019-05-28T12:12:40.843Z,16.50
2019-05-28T12:15:11.424Z,16.30
2019-05-28T12:17:43.351Z,16.40
2019-05-28T12:20:13.288Z,16.30
2019-05-28T12:22:42.585Z,16.10
2019-05-28T12:25:13.459Z,16.20
2019-05-28T12:27:42.068Z,16.40
2019-05-28T12:30:12.942Z,16.30
2019-05-28T12:32:41.492Z,16.20
2019-05-28T12:35:27.202Z,16.20
2019-05-28T12:37:49.327Z,16.20
2019-05-28T12:40:12.614Z,16.10
2019-05-28T12:42:41.163Z,16.10
2019-05-28T12:45:11.931Z,16.10
2019-05-28T12:47:40.415Z,16.20
2019-05-28T12:50:19.029Z,16.10
2019-05-28T12:52:40.024Z,16.00
2019-05-28T12:55:09.662Z,16.10
2019-05-28T12:57:38.163Z,16.20
2019-05-28T13:00:08.347Z,16.30
2019-05-28T13:02:36.831Z,16.50
2019-05-28T13:05:10.307Z,16.50
2019-05-28T13:07:38.862Z,16.50
2019-05-28T13:10:08.833Z,16.50
2019-05-28T13:12:37.307Z,16.60
2019-05-28T13:15:06.687Z,16.70
2019-05-28T13:17:35.229Z,16.70
2019-05-28T13:20:05.454Z,16.80
2019-05-28T13:22:33.989Z,17.00
2019-05-28T13:25:02.783Z,17.20
2019-05-28T13:27:31.347Z,17.20
2019-05-28T13:29:59.890Z,17.30
2019-05-28T13:32:28.449Z,17.70
2019-05-28T13:34:57.161Z,17.80
2019-05-28T13:37:25.842Z,18.00
2019-05-28T13:39:54.400Z,18.30
2019-05-28T13:42:22.943Z,18.20
2019-05-28T13:44:51.465Z,18.30
2019-05-28T13:47:32.896Z,18.40
2019-05-28T13:49:50.208Z,18.20
2019-05-28T13:52:18.755Z,18.50
2019-05-28T13:54:47.242Z,18.50
2019-05-28T13:57:15.788Z,18.20
2019-05-28T13:59:44.334Z,17.60
2019-05-28T14:02:12.875Z,16.90
2019-05-28T14:04:41.355Z,16.50
2019-05-28T14:07:09.973Z,16.10
2019-05-28T14:09:38.499Z,15.70
2019-05-28T14:12:07.051Z,15.40
2019-05-28T14:14:35.524Z,15.20
2019-05-28T14:17:04.179Z,14.90
2019-05-28T14:19:32.762Z,14.80
2019-05-28T14:22:04.391Z,14.90
2019-05-28T14:24:31.591Z,14.90
2019-05-28T14:27:00.127Z,14.90
2019-05-28T14:29:28.630Z,14.90
2019-05-28T14:31:57.238Z,14.00
2019-05-28T14:34:25.844Z,12.50
2019-05-28T14:36:54.590Z,13.20
2019-05-28T14:39:37.953Z,13.60
2019-05-28T14:41:53.387Z,13.00
2019-05-28T14:44:21.947Z,13.10
2019-05-28T14:46:50.495Z,13.20
2019-05-28T14:49:19.114Z,12.90
2019-05-28T14:51:47.656Z,12.90
2019-05-28T14:54:16.283Z,13.60
2019-05-28T14:56:44.742Z,13.40
2019-05-28T14:59:13.229Z,13.80
2019-05-28T15:01:41.782Z,14.00
2019-05-28T15:04:10.329Z,13.30
2019-05-28T15:06:38.870Z,13.10
2019-05-28T15:09:20.928Z,13.10
2019-05-28T15:11:40.775Z,13.20
2019-05-28T15:14:09.354Z,13.40
2019-05-28T15:16:37.905Z,13.20
2019-05-28T15:19:06.459Z,13.70
2019-05-28T15:21:35.004Z,13.90
2019-05-28T15:24:03.631Z,14.20
2019-05-28T15:26:32.128Z,14.50
2019-05-28T15:29:00.663Z,14.60
2019-05-28T15:31:29.276Z,14.50
2019-05-28T15:33:57.865Z,14.70
2019-05-28T15:36:26.339Z,15.10
2019-05-28T15:38:54.935Z,15.30
2019-05-28T15:41:23.464Z,15.60
2019-05-28T15:43:51.973Z,15.60
2019-05-28T15:46:20.507Z,15.50
2019-05-28T15:48:49.062Z,15.60
2019-05-28T15:51:17.636Z,15.70
2019-05-28T15:53:46.309Z,15.60
2019-05-28T15:56:14.778Z,15.90
2019-05-28T15:58:43.336Z,15.80
2019-05-28T16:01:11.872Z,15.90
2019-05-28T16:03:40.431Z,16.10
2019-05-28T16:06:08.920Z,16.10
2019-05-28T16:08:37.487Z,15.90
2019-05-28T16:11:06.032Z,15.80
2019-05-28T16:13:34.579Z,15.90
2019-05-28T16:16:07.436Z,15.80
2019-05-28T16:18:33.602Z,15.80
2019-05-28T16:21:02.138Z,15.80
2019-05-28T16:23:30.708Z,15.90
2019-05-28T16:25:59.258Z,15.70
2019-05-28T16:28:27.756Z,15.60
2019-05-28T16:31:11.949Z,15.40
2019-05-28T16:33:26.488Z,15.40
2019-05-28T16:35:55.035Z,15.20
2019-05-28T16:38:23.512Z,15.30
2019-05-28T16:40:52.059Z,15.10
2019-05-28T16:43:20.536Z,14.90
2019-05-28T16:45:49.090Z,14.80
2019-05-28T16:48:17.628Z,14.60
2019-05-28T16:50:46.206Z,14.70
2019-05-28T16:53:14.672Z,14.60
2019-05-28T16:55:43.176Z,14.60
2019-05-28T16:58:11.720Z,14.60
2019-05-28T17:00:40.388Z,14.50
2019-05-28T17:03:08.942Z,14.60
2019-05-28T17:05:38.425Z,14.70
2019-05-28T17:08:06.889Z,14.70
2019-05-28T17:10:35.487Z,14.80
2019-05-28T17:13:04.356Z,14.90
2019-05-28T17:15:32.912Z,14.90
2019-05-28T17:18:01.392Z,14.80
2019-05-28T17:20:29.953Z,14.90
2019-05-28T17:22:58.496Z,14.80
2019-05-28T17:25:26.974Z,15.00
2019-05-28T17:27:55.524Z,14.90
2019-05-28T17:30:24.716Z,15.00
2019-05-28T17:32:53.330Z,15.10
2019-05-28T17:35:21.804Z,14.90
2019-05-28T17:37:51.335Z,15.00
2019-05-28T17:40:22.913Z,14.90
2019-05-28T17:42:50.127Z,14.90
2019-05-28T17:45:19.175Z,14.80
2019-05-28T17:47:47.643Z,14.80
2019-05-28T17:50:16.850Z,14.70
2019-05-28T17:52:45.453Z,14.70
2019-05-28T17:55:14.444Z,14.60
2019-05-28T17:57:42.987Z,14.50
2019-05-28T18:00:13.412Z,14.50
2019-05-28T18:02:43.543Z,14.30
2019-05-28T18:05:12.249Z,14.30
2019-05-28T18:07:40.800Z,14.30
2019-05-28T18:10:12.046Z,14.20
2019-05-28T18:12:40.870Z,14.10
2019-05-28T18:15:09.964Z,14.20
2019-05-28T18:17:38.530Z,14.10
2019-05-28T18:20:08.734Z,14.20
2019-05-28T18:22:37.289Z,14.30
2019-05-28T18:25:06.862Z,14.10
2019-05-28T18:27:35.392Z,14.10
2019-05-28T18:30:06.112Z,13.90
2019-05-28T18:32:34.687Z,13.90
2019-05-28T18:35:03.933Z,13.80
2019-05-28T18:37:32.399Z,13.60
2019-05-28T18:40:00.970Z,13.50
2019-05-28T18:42:29.551Z,13.50
2019-05-28T18:44:58.049Z,13.50
2019-05-28T18:47:26.650Z,13.60
2019-05-28T18:49:57.122Z,13.60
2019-05-28T18:52:27.585Z,13.50
2019-05-28T18:54:55.658Z,13.50
2019-05-28T18:57:24.212Z,13.40
2019-05-28T18:59:52.769Z,13.30
2019-05-28T19:02:21.329Z,13.20
2019-05-28T19:04:49.822Z,13.10
2019-05-28T19:07:18.369Z,13.10
2019-05-28T19:09:46.929Z,13.00
2019-05-28T19:12:15.488Z,12.90
2019-05-28T19:14:44.040Z,12.80
2019-05-28T19:17:12.598Z,12.70
2019-05-28T19:19:41.071Z,12.60
2019-05-28T19:22:09.554Z,12.70
2019-05-28T19:24:38.163Z,12.60
2019-05-28T19:27:06.652Z,12.50
2019-05-28T19:29:35.178Z,12.50
2019-05-28T19:32:03.737Z,12.40
2019-05-28T19:34:32.950Z,12.20
2019-05-28T19:37:03.538Z,12.30
2019-05-28T19:39:32.772Z,12.30
2019-05-28T19:42:01.211Z,12.20
2019-05-28T19:44:29.639Z,12.30
2019-05-28T19:46:58.096Z,12.30
2019-05-28T19:49:26.584Z,12.20
2019-05-28T19:51:55.054Z,12.20
2019-05-28T19:54:23.466Z,12.20
2019-05-28T19:56:51.908Z,12.10
2019-05-28T19:59:20.359Z,12.10
2019-05-28T20:01:48.810Z,12.20
2019-05-28T20:04:17.251Z,12.20
2019-05-28T20:06:45.707Z,12.20
2019-05-28T20:09:14.209Z,12.20
2019-05-28T20:11:42.714Z,12.20
2019-05-28T20:14:11.131Z,12.10
2019-05-28T20:16:39.572Z,11.90
2019-05-28T20:19:07.994Z,11.90
2019-05-28T20:21:36.431Z,11.90
2019-05-28T20:24:05.215Z,11.90
2019-05-28T20:26:33.652Z,11.80
2019-05-28T20:29:08.560Z,11.70
2019-05-28T20:31:32.235Z,11.70
2019-05-28T20:34:01.128Z,11.70
2019-05-28T20:36:29.688Z,11.70
2019-05-28T20:38:58.109Z,11.50
2019-05-28T20:41:26.542Z,11.30
2019-05-28T20:43:55.092Z,11.30
2019-05-28T20:46:23.499Z,11.30
2019-05-28T20:48:51.935Z,11.40
2019-05-28T20:51:22.115Z,11.50
2019-05-28T20:53:50.535Z,11.60
2019-05-28T20:56:18.981Z,11.60
2019-05-28T20:58:47.468Z,11.50
2019-05-28T21:01:15.919Z,11.60
2019-05-28T21:03:45.114Z,11.50
2019-05-28T21:06:13.546Z,11.40
2019-05-28T21:08:41.969Z,11.40
2019-05-28T21:11:10.382Z,11.40
2019-05-28T21:13:38.837Z,11.30
2019-05-28T21:16:07.251Z,11.20
2019-05-28T21:18:35.698Z,11.00
2019-05-28T21:21:04.297Z,10.80
2019-05-28T21:23:32.764Z,10.40
2019-05-28T21:26:01.425Z,10.40
2019-05-28T21:28:29.875Z,10.60
2019-05-28T21:30:58.866Z,10.80
2019-05-28T21:33:28.317Z,10.90
2019-05-28T21:35:57.340Z,10.90
2019-05-28T21:38:25.870Z,10.90
2019-05-28T21:40:55.486Z,10.90
2019-05-28T21:43:24.040Z,11.00
2019-05-28T21:45:52.459Z,10.90
2019-05-28T21:48:20.908Z,10.60
2019-05-28T21:50:49.321Z,10.70
2019-05-28T21:53:17.792Z,10.60
2019-05-28T21:55:46.222Z,10.50
2019-05-28T21:58:14.673Z,10.60
2019-05-28T22:00:47.875Z,10.30
2019-05-28T22:03:16.811Z,10.60
2019-05-28T22:05:45.238Z,10.70
2019-05-28T22:08:13.675Z,10.70
2019-05-28T22:10:42.239Z,10.80
2019-05-28T22:13:21.298Z,10.90
2019-05-28T22:15:40.819Z,10.90
2019-05-28T22:18:09.256Z,10.70
2019-05-28T22:20:37.695Z,10.40
2019-05-28T22:23:06.143Z,10.20
2019-05-28T22:25:34.575Z,10.40
2019-05-28T22:28:03.047Z,10.40
2019-05-28T22:30:31.480Z,10.50
2019-05-28T22:33:00.034Z,10.50
2019-05-28T22:35:28.534Z,10.50
2019-05-28T22:37:57.199Z,10.60
2019-05-28T22:40:25.770Z,10.60
2019-05-28T22:42:54.214Z,10.70
2019-05-28T22:45:22.650Z,10.60
2019-05-28T22:47:51.416Z,10.60
2019-05-28T22:50:23.265Z,10.50
2019-05-28T22:52:50.595Z,10.60
2019-05-28T22:55:19.574Z,10.60
2019-05-28T22:57:48.035Z,10.60
2019-05-28T23:00:16.715Z,10.60
2019-05-28T23:02:45.206Z,10.60
2019-05-28T23:05:14.003Z,10.60
2019-05-28T23:07:42.434Z,10.60
2019-05-28T23:10:11.040Z,10.70
2019-05-28T23:12:39.484Z,10.80
2019-05-28T23:15:08.967Z,10.70
2019-05-28T23:17:37.535Z,10.80
2019-05-28T23:20:09.083Z,10.80
2019-05-28T23:22:37.625Z,10.80
2019-05-28T23:25:07.984Z,10.80
2019-05-28T23:27:36.425Z,10.80
2019-05-28T23:30:21.538Z,10.80
2019-05-28T23:32:38.559Z,10.90
2019-05-28T23:35:08.755Z,10.90
2019-05-28T23:37:37.370Z,10.90
2019-05-28T23:40:07.218Z,11.00
2019-05-28T23:42:35.647Z,11.00
2019-05-28T23:45:07.409Z,10.90
2019-05-28T23:47:36.209Z,11.00
2019-05-28T23:50:06.662Z,10.90
2019-05-28T23:52:35.193Z,10.90
2019-05-28T23:55:04.202Z,11.00
2019-05-28T23:57:32.648Z,10.90
